Time;durP1;ratioP1;P1;durP2;ratioP2;P2;SDS_P1;SDS_P2;PMS_P1;PMS_P2;Temp;Humidity;BMP_temperature;BMP_pressure;BME280_temperature;BME280_humidity;BME280_pressure;Samples;Min_cycle;Max_cycle;Signal;HPM_P1;HPM_P2
2023/04/05 00:00:27;;;;;;;0.95;0.35;;;5.70;73.00;;;;;;5088355;28;20122;-75
2023/04/05 00:02:54;;;;;;;0.10;0.10;;;5.60;73.00;;;;;;5080381;28;20581;-78
2023/04/05 00:05:28;;;;;;;0.47;0.47;;;5.60;73.20;;;;;;5100301;28;20047;-77
2023/04/05 00:07:59;;;;;;;0.40;0.40;;;5.60;74.00;;;;;;5093291;28;20717;-76
2023/04/05 00:10:25;;;;;;;0.38;0.38;;;5.50;73.90;;;;;;5091640;28;20388;-75
2023/04/05 00:12:51;;;;;;;0.20;0.20;;;5.50;74.40;;;;;;5074492;28;20148;-76
2023/04/05 00:15:17;;;;;;;0.05;0.05;;;5.40;75.10;;;;;;5101243;28;20119;-75
2023/04/05 00:17:44;;;;;;;0.45;0.45;;;5.30;75.30;;;;;;5101352;28;20035;-77
2023/04/05 00:20:10;;;;;;;1.65;1.55;;;5.40;74.90;;;;;;5084790;28;20016;-77
2023/04/05 00:22:37;;;;;;;0.28;0.28;;;5.30;76.00;;;;;;5096380;28;20464;-74
2023/04/05 00:25:06;;;;;;;0.30;0.30;;;5.30;75.70;;;;;;5095636;28;20866;-75
2023/04/05 00:27:32;;;;;;;0.20;0.20;;;5.30;75.50;;;;;;5094204;28;20047;-76
2023/04/05 00:29:57;;;;;;;0.10;0.10;;;5.30;75.70;;;;;;5088521;28;20151;-75
2023/04/05 00:32:23;;;;;;;0.03;0.03;;;5.30;75.90;;;;;;5088254;28;20050;-75
2023/04/05 00:34:49;;;;;;;0.00;0.00;;;5.30;75.70;;;;;;5099672;28;20042;-76
2023/04/05 00:37:15;;;;;;;0.20;0.20;;;5.40;75.20;;;;;;5100662;28;20430;-75
2023/04/05 00:39:41;;;;;;;0.03;0.03;;;5.40;75.60;;;;;;5085876;28;20028;-75
2023/04/05 00:42:07;;;;;;;0.25;0.25;;;5.30;75.80;;;;;;5078420;28;20055;-74
2023/04/05 00:44:34;;;;;;;0.30;0.30;;;5.30;76.00;;;;;;5099889;28;20046;-75
2023/04/05 00:47:01;;;;;;;0.10;0.10;;;5.10;76.80;;;;;;5096353;28;20026;-77
2023/04/05 00:49:29;;;;;;;0.00;0.00;;;5.20;76.50;;;;;;5096902;28;20375;-76
2023/04/05 00:51:56;;;;;;;0.10;0.10;;;5.10;76.70;;;;;;5090869;28;20044;-76
2023/04/05 00:54:22;;;;;;;0.28;0.28;;;5.20;76.40;;;;;;5091965;28;20035;-75
2023/04/05 00:56:51;;;;;;;0.10;0.10;;;5.00;77.20;;;;;;5093267;28;20079;-75
2023/04/05 00:59:18;;;;;;;0.10;0.10;;;4.90;77.60;;;;;;5090272;28;20454;-74
2023/04/05 01:01:53;;;;;;;0.00;0.00;;;4.90;77.90;;;;;;5086887;28;20082;-75
2023/04/05 01:04:24;;;;;;;0.10;0.10;;;4.80;78.70;;;;;;5095085;28;20062;-74
2023/04/05 01:07:15;;;;;;;0.28;0.28;;;4.80;78.40;;;;;;5088440;28;20033;-74
2023/04/05 01:09:56;;;;;;;1.85;0.70;;;4.80;78.10;;;;;;5089996;28;20056;-75
2023/04/05 01:12:24;;;;;;;0.20;0.20;;;4.80;78.50;;;;;;5087168;28;20106;-74
2023/04/05 01:14:52;;;;;;;0.20;0.20;;;4.80;78.60;;;;;;5095180;28;20032;-77
2023/04/05 01:17:21;;;;;;;0.08;0.08;;;4.80;78.50;;;;;;5094023;28;20023;-75
2023/04/05 01:19:53;;;;;;;0.43;0.43;;;4.70;78.70;;;;;;5085483;28;20503;-74
2023/04/05 01:22:40;;;;;;;0.10;0.10;;;4.60;79.20;;;;;;5093140;28;20027;-75
2023/04/05 01:25:35;;;;;;;0.40;0.40;;;4.50;79.50;;;;;;5084820;28;20033;-74
2023/04/05 01:28:10;;;;;;;0.93;0.80;;;4.50;79.90;;;;;;5097967;28;20020;-75
2023/04/05 01:30:41;;;;;;;0.80;0.80;;;4.60;79.80;;;;;;5102182;28;20124;-75
2023/04/05 01:33:28;;;;;;;0.30;0.30;;;4.50;80.20;;;;;;5095774;28;20032;-77
2023/04/05 01:36:02;;;;;;;0.00;0.00;;;4.40;80.40;;;;;;5095606;28;20020;-76
2023/04/05 01:38:29;;;;;;;0.38;0.38;;;4.40;80.70;;;;;;5092907;28;20035;-75
2023/04/05 01:40:55;;;;;;;0.77;0.77;;;4.40;80.80;;;;;;5104425;28;20120;-76
2023/04/05 01:43:21;;;;;;;3.67;0.77;;;4.30;81.30;;;;;;5092764;28;20507;-75
2023/04/05 01:45:46;;;;;;;1.30;1.20;;;4.30;81.40;;;;;;5102919;28;20026;-75
2023/04/05 01:48:13;;;;;;;0.35;0.35;;;4.30;81.50;;;;;;5092460;28;20032;-75
2023/04/05 01:50:39;;;;;;;0.10;0.10;;;4.30;81.60;;;;;;5099712;28;20032;-76
2023/04/05 01:53:07;;;;;;;0.17;0.17;;;4.20;81.80;;;;;;5088085;27;20567;-75
2023/04/05 01:55:33;;;;;;;0.10;0.10;;;4.10;82.10;;;;;;5095355;28;20022;-74
2023/04/05 01:57:58;;;;;;;0.08;0.08;;;4.10;82.20;;;;;;5092554;28;20043;-76
2023/04/05 02:00:24;;;;;;;0.08;0.08;;;4.10;83.00;;;;;;5101080;28;20028;-74
2023/04/05 02:02:50;;;;;;;0.10;0.10;;;4.10;82.60;;;;;;5100588;28;20522;-75
2023/04/05 02:05:16;;;;;;;0.20;0.20;;;4.00;82.90;;;;;;5091434;28;20053;-76
2023/04/05 02:07:41;;;;;;;0.25;0.25;;;4.00;83.20;;;;;;5095130;28;20127;-74
2023/04/05 02:10:08;;;;;;;0.47;0.38;;;3.90;83.60;;;;;;5090198;28;20124;-74
2023/04/05 02:12:33;;;;;;;0.10;0.10;;;3.80;84.00;;;;;;5095101;28;20035;-75
2023/04/05 02:14:59;;;;;;;0.17;0.17;;;3.90;83.90;;;;;;5081721;28;20040;-76
2023/04/05 02:17:32;;;;;;;0.20;0.20;;;3.90;84.00;;;;;;5094015;28;20229;-75
2023/04/05 02:20:01;;;;;;;0.03;0.03;;;3.80;84.30;;;;;;5097733;28;20015;-75
2023/04/05 02:22:27;;;;;;;0.10;0.10;;;3.70;84.60;;;;;;5084684;28;20034;-75
2023/04/05 02:24:52;;;;;;;0.17;0.17;;;3.70;84.70;;;;;;5094971;28;20015;-75
2023/04/05 02:27:18;;;;;;;0.43;0.43;;;3.80;84.20;;;;;;5084488;28;20028;-76
2023/04/05 02:29:44;;;;;;;0.00;0.00;;;3.80;84.40;;;;;;5098311;28;20116;-76
2023/04/05 02:32:10;;;;;;;0.43;0.43;;;3.80;84.50;;;;;;5099516;28;20708;-75
2023/04/05 02:34:40;;;;;;;0.20;0.20;;;3.70;84.70;;;;;;5101156;28;20024;-74
2023/04/05 02:37:06;;;;;;;0.30;0.30;;;3.70;85.10;;;;;;5077266;28;20068;-75
2023/04/05 02:39:31;;;;;;;0.00;0.00;;;3.70;85.00;;;;;;5094469;28;20063;-74
2023/04/05 02:41:58;;;;;;;0.38;0.38;;;3.70;85.30;;;;;;5085193;28;20283;-74
2023/04/05 02:44:23;;;;;;;0.10;0.10;;;3.50;86.20;;;;;;5088640;28;20031;-74
2023/04/05 02:46:49;;;;;;;0.20;0.20;;;3.50;86.20;;;;;;5087892;28;20032;-75
2023/04/05 02:49:15;;;;;;;0.00;0.00;;;3.40;86.70;;;;;;5094049;28;20035;-75
2023/04/05 02:51:41;;;;;;;0.57;0.57;;;3.50;86.50;;;;;;5095661;28;20024;-75
2023/04/05 02:54:06;;;;;;;0.10;0.10;;;3.50;86.40;;;;;;5095957;28;20050;-76
2023/04/05 02:56:32;;;;;;;0.20;0.20;;;3.60;86.10;;;;;;5087402;28;20056;-74
2023/04/05 02:58:58;;;;;;;0.13;0.13;;;3.60;85.80;;;;;;5072415;28;20063;-77
2023/04/05 03:01:24;;;;;;;0.10;0.10;;;3.70;85.10;;;;;;5072376;28;20469;-74
2023/04/05 03:03:50;;;;;;;0.10;0.10;;;3.60;85.50;;;;;;5076942;28;20059;-75
2023/04/05 03:06:15;;;;;;;0.20;0.20;;;3.60;85.70;;;;;;5078692;28;20128;-77
2023/04/05 03:08:45;;;;;;;0.10;0.10;;;3.50;86.20;;;;;;5071536;28;20114;-76
2023/04/05 03:11:11;;;;;;;0.10;0.10;;;3.40;86.50;;;;;;5072984;28;20034;-77
2023/04/05 03:13:37;;;;;;;0.30;0.30;;;3.30;87.30;;;;;;5074013;28;20106;-75
2023/04/05 03:16:04;;;;;;;0.20;0.20;;;3.30;87.00;;;;;;5076408;28;20032;-76
2023/04/05 03:18:29;;;;;;;0.10;0.10;;;3.30;87.30;;;;;;5071369;28;20095;-75
2023/04/05 03:20:56;;;;;;;0.10;0.10;;;3.20;87.20;;;;;;5070700;28;20033;-74
2023/04/05 03:23:27;;;;;;;0.35;0.32;;;3.20;87.60;;;;;;5072463;28;20036;-75
2023/04/05 03:26:03;;;;;;;0.17;0.17;;;3.20;87.60;;;;;;5074903;28;20025;-77
2023/04/05 03:28:31;;;;;;;0.10;0.10;;;3.10;87.70;;;;;;5082691;28;20119;-75
2023/04/05 03:30:57;;;;;;;0.32;0.32;;;3.20;87.50;;;;;;5064465;28;20020;-74
2023/04/05 03:33:23;;;;;;;0.13;0.13;;;3.20;87.30;;;;;;5081437;28;20036;-78
2023/04/05 03:35:49;;;;;;;0.10;0.10;;;3.10;87.20;;;;;;5062608;28;20038;-74
2023/04/05 03:38:15;;;;;;;0.00;0.00;;;3.20;86.70;;;;;;5057755;28;20037;-75
2023/04/05 03:40:41;;;;;;;0.20;0.20;;;3.20;86.80;;;;;;5056105;28;20046;-75
2023/04/05 03:43:06;;;;;;;0.10;0.10;;;3.20;86.70;;;;;;5071526;28;20024;-75
2023/04/05 03:45:33;;;;;;;0.10;0.10;;;3.10;86.80;;;;;;5075011;28;20028;-74
2023/04/05 03:47:58;;;;;;;0.95;0.63;;;3.00;87.20;;;;;;5067573;28;20029;-76
2023/04/05 03:50:25;;;;;;;0.77;0.47;;;3.00;87.40;;;;;;5069116;28;20472;-74
2023/04/05 03:52:52;;;;;;;0.30;0.28;;;3.00;87.70;;;;;;5067357;28;20032;-75
2023/04/05 03:55:17;;;;;;;0.03;0.03;;;2.90;88.20;;;;;;5070828;28;20036;-76
2023/04/05 03:57:44;;;;;;;0.22;0.22;;;2.80;89.00;;;;;;5065165;28;20058;-78
2023/04/05 04:00:13;;;;;;;0.32;0.32;;;2.70;89.20;;;;;;5097914;28;20023;-75
2023/04/05 04:02:49;;;;;;;0.13;0.13;;;2.80;89.00;;;;;;5095062;28;20114;-75
2023/04/05 04:05:16;;;;;;;0.25;0.25;;;2.70;89.40;;;;;;5098129;28;20034;-76
2023/04/05 04:07:43;;;;;;;0.20;0.20;;;2.70;89.90;;;;;;5099564;28;20724;-76
2023/04/05 04:10:11;;;;;;;0.32;0.32;;;2.50;90.20;;;;;;5094684;28;20491;-77
2023/04/05 04:12:37;;;;;;;0.22;0.22;;;2.50;90.40;;;;;;5099114;28;20027;-75
2023/04/05 04:15:04;;;;;;;0.10;0.10;;;2.60;90.50;;;;;;5088995;28;20032;-75
2023/04/05 04:17:32;;;;;;;0.10;0.10;;;2.50;90.80;;;;;;5091494;28;20027;-75
2023/04/05 04:19:58;;;;;;;0.20;0.20;;;2.40;90.90;;;;;;5094499;28;20040;-74
2023/04/05 04:22:37;;;;;;;0.43;0.43;;;2.40;91.00;;;;;;5091745;28;20051;-75
2023/04/05 04:25:04;;;;;;;0.25;0.25;;;2.40;91.10;;;;;;5091644;28;20060;-75
2023/04/05 04:27:30;;;;;;;;;;;2.30;91.30;;;;;;5086374;28;20031;-75
2023/04/05 04:30:00;;;;;;;0.10;0.10;;;2.30;91.30;;;;;;5094458;28;19923;-76
2023/04/05 04:32:46;;;;;;;0.73;0.73;;;2.40;91.30;;;;;;5090754;28;20038;-75
2023/04/05 04:35:19;;;;;;;1.42;1.33;;;2.40;91.30;;;;;;5096884;28;20420;-75
2023/04/05 04:37:46;;;;;;;0.10;0.10;;;2.30;91.60;;;;;;5094625;28;20494;-76
2023/04/05 04:40:17;;;;;;;0.28;0.28;;;2.30;91.40;;;;;;5088610;28;20024;-75
2023/04/05 04:42:46;;;;;;;0.77;0.77;;;2.30;91.50;;;;;;5099039;28;20028;-77
2023/04/05 04:45:16;;;;;;;0.40;0.40;;;2.30;91.40;;;;;;5090496;28;20178;-76
2023/04/05 04:47:46;;;;;;;0.08;0.08;;;2.50;90.90;;;;;;5094109;28;20036;-76
2023/04/05 04:50:13;;;;;;;0.13;0.13;;;2.40;91.10;;;;;;5090343;28;20035;-74
2023/04/05 04:52:39;;;;;;;0.43;0.43;;;2.40;91.20;;;;;;5096621;28;20150;-74
2023/04/05 04:55:12;;;;;;;0.20;0.20;;;2.30;91.20;;;;;;5097048;28;20032;-74
2023/04/05 04:57:38;;;;;;;0.15;0.15;;;2.40;91.40;;;;;;5088826;28;20754;-74
2023/04/05 05:00:10;;;;;;;0.10;0.10;;;2.30;91.50;;;;;;5097541;28;20031;-77
2023/04/05 05:02:36;;;;;;;0.10;0.10;;;2.40;91.30;;;;;;5096582;28;20028;-75
2023/04/05 05:05:03;;;;;;;0.17;0.17;;;2.30;91.50;;;;;;5101350;28;20028;-74
2023/04/05 05:07:29;;;;;;;0.13;0.13;;;2.20;91.60;;;;;;5101185;27;20059;-74
2023/04/05 05:09:55;;;;;;;0.08;0.08;;;2.10;91.90;;;;;;5101923;28;20812;-74
2023/04/05 05:12:21;;;;;;;0.20;0.20;;;2.10;91.90;;;;;;5093900;28;20032;-73
2023/04/05 05:14:47;;;;;;;0.20;0.20;;;2.00;91.90;;;;;;5103546;28;20027;-73
2023/04/05 05:17:12;;;;;;;0.28;0.28;;;2.10;92.00;;;;;;5096358;28;20047;-74
2023/04/05 05:19:38;;;;;;;0.10;0.10;;;2.00;92.20;;;;;;5097509;28;20024;-74
2023/04/05 05:22:04;;;;;;;0.20;0.20;;;2.00;92.30;;;;;;5092203;28;20066;-73
2023/04/05 05:24:29;;;;;;;0.10;0.10;;;1.90;92.50;;;;;;5096988;28;20072;-74
2023/04/05 05:26:55;;;;;;;0.13;0.13;;;2.00;92.50;;;;;;5095638;27;20418;-72
2023/04/05 05:29:21;;;;;;;0.05;0.05;;;2.00;92.30;;;;;;5097552;28;20071;-72
2023/04/05 05:31:46;;;;;;;0.10;0.10;;;1.90;92.50;;;;;;5092646;28;20129;-74
2023/04/05 05:34:12;;;;;;;0.45;0.45;;;2.00;92.40;;;;;;5104757;28;20024;-73
2023/04/05 05:36:38;;;;;;;0.10;0.10;;;2.00;92.30;;;;;;5097186;28;20032;-73
2023/04/05 05:39:06;;;;;;;0.85;0.85;;;1.90;92.40;;;;;;5101871;28;20584;-76
2023/04/05 05:41:32;;;;;;;0.10;0.10;;;2.20;92.00;;;;;;5102794;28;20111;-73
2023/04/05 05:43:58;;;;;;;29.73;1.03;;;2.20;91.60;;;;;;5099786;28;20027;-73
2023/04/05 05:46:25;;;;;;;0.25;0.25;;;2.40;91.60;;;;;;5097320;28;20413;-71
2023/04/05 05:48:50;;;;;;;0.17;0.17;;;3.30;89.30;;;;;;5092570;28;20031;-71
2023/04/05 05:51:16;;;;;;;0.10;0.10;;;3.70;87.60;;;;;;5100359;28;20054;-74
2023/04/05 05:53:43;;;;;;;0.50;0.50;;;3.80;86.90;;;;;;5100131;28;20461;-72
2023/04/05 05:56:10;;;;;;;0.10;0.10;;;4.00;86.10;;;;;;5097475;28;20572;-71
2023/04/05 05:58:35;;;;;;;0.10;0.10;;;4.00;86.10;;;;;;5104119;28;20498;-72
2023/04/05 06:01:02;;;;;;;0.20;0.20;;;4.20;85.20;;;;;;5103844;28;20106;-72
2023/04/05 06:03:29;;;;;;;0.20;0.20;;;4.30;84.70;;;;;;5083784;28;20031;-71
2023/04/05 06:05:56;;;;;;;0.10;0.10;;;4.70;83.50;;;;;;5104270;28;20036;-72
2023/04/05 06:08:23;;;;;;;0.30;0.30;;;5.00;82.80;;;;;;5102175;28;20082;-74
2023/04/05 06:10:49;;;;;;;0.10;0.10;;;5.10;82.50;;;;;;5093380;28;20055;-72
2023/04/05 06:13:15;;;;;;;0.10;0.10;;;5.40;81.70;;;;;;5094380;28;20028;-72
2023/04/05 06:15:46;;;;;;;0.20;0.20;;;5.60;80.60;;;;;;5104033;28;20028;-71
2023/04/05 06:18:11;;;;;;;0.10;0.10;;;6.10;79.30;;;;;;5091607;28;20059;-72
2023/04/05 06:20:39;;;;;;;0.10;0.10;;;6.10;79.60;;;;;;5099169;28;20483;-72
2023/04/05 06:23:08;;;;;;;0.35;0.35;;;6.30;78.80;;;;;;5103842;28;20028;-72
2023/04/05 06:25:34;;;;;;;0.47;0.47;;;6.30;78.90;;;;;;5102907;28;20445;-72
2023/04/05 06:28:01;;;;;;;0.10;0.10;;;6.40;78.90;;;;;;5094641;28;20032;-72
2023/04/05 06:30:27;;;;;;;0.20;0.20;;;6.70;77.90;;;;;;5102841;28;20023;-72
2023/04/05 06:32:53;;;;;;;0.40;0.40;;;7.30;77.10;;;;;;5103526;28;20936;-71
2023/04/05 06:35:21;;;;;;;0.65;0.57;;;7.40;75.10;;;;;;5101920;28;20030;-72
2023/04/05 06:37:47;;;;;;;0.40;0.40;;;7.70;74.70;;;;;;5080761;28;20109;-72
2023/04/05 06:40:13;;;;;;;0.57;0.57;;;8.10;72.20;;;;;;5097811;28;20035;-74
2023/04/05 06:42:39;;;;;;;0.30;0.30;;;8.30;72.30;;;;;;5099544;28;20105;-72
2023/04/05 06:45:06;;;;;;;0.30;0.30;;;8.50;71.70;;;;;;5102709;28;20315;-71
2023/04/05 06:47:35;;;;;;;0.25;0.25;;;8.60;71.80;;;;;;5100602;28;20558;-71
2023/04/05 06:50:02;;;;;;;0.40;0.40;;;8.30;70.20;;;;;;5101147;28;20107;-71
2023/04/05 06:52:28;;;;;;;0.57;0.57;;;8.70;70.60;;;;;;5101938;28;20019;-71
2023/04/05 06:54:54;;;;;;;0.10;0.10;;;8.90;69.20;;;;;;5078290;28;20087;-72
2023/04/05 06:57:19;;;;;;;0.17;0.17;;;8.90;69.90;;;;;;5099822;28;20136;-71
2023/04/05 06:59:45;;;;;;;0.40;0.40;;;9.30;69.70;;;;;;5098493;28;20030;-72
2023/04/05 07:02:11;;;;;;;0.10;0.10;;;9.90;69.00;;;;;;5090717;28;20049;-74
2023/04/05 07:04:38;;;;;;;0.43;0.43;;;10.50;66.80;;;;;;5088670;28;20433;-72
2023/04/05 07:07:04;;;;;;;1.00;0.90;;;10.50;63.50;;;;;;5103327;28;20023;-72
2023/04/05 07:09:31;;;;;;;1.42;0.50;;;10.70;63.70;;;;;;5092439;28;20073;-73
2023/04/05 07:11:58;;;;;;;0.40;0.40;;;10.60;62.20;;;;;;5089871;28;20075;-72
2023/04/05 07:14:24;;;;;;;0.30;0.25;;;11.20;62.90;;;;;;5082303;28;20104;-72
2023/04/05 07:16:51;;;;;;;0.20;0.20;;;11.10;63.30;;;;;;5100023;28;20487;-72
2023/04/05 07:19:17;;;;;;;0.00;0.00;;;11.00;63.00;;;;;;5092954;28;20035;-74
2023/04/05 07:21:43;;;;;;;0.57;0.57;;;11.10;61.80;;;;;;5082314;28;20047;-72
2023/04/05 07:24:09;;;;;;;0.20;0.20;;;11.50;61.70;;;;;;5103357;28;20100;-73
2023/04/05 07:26:36;;;;;;;0.10;0.10;;;11.50;61.20;;;;;;5088614;28;20051;-71
2023/04/05 07:29:03;;;;;;;1.02;0.65;;;11.50;60.00;;;;;;5095316;28;20027;-74
2023/04/05 07:31:30;;;;;;;1.13;0.75;;;11.50;59.70;;;;;;5097922;28;20038;-73
2023/04/05 07:33:57;;;;;;;;;;;12.30;59.30;;;;;;5091298;28;20202;-73
2023/04/05 07:36:22;;;;;;;0.15;0.15;;;12.30;58.80;;;;;;5088952;28;20647;-72
2023/04/05 07:38:48;;;;;;;0.70;0.70;;;12.50;57.40;;;;;;5096911;28;20039;-72
2023/04/05 07:41:17;;;;;;;0.10;0.10;;;12.80;57.30;;;;;;5098949;28;20414;-72
2023/04/05 07:43:43;;;;;;;0.25;0.25;;;13.50;57.60;;;;;;5101505;28;20027;-74
2023/04/05 07:46:08;;;;;;;0.60;0.43;;;14.00;56.20;;;;;;5090243;28;20020;-73
2023/04/05 07:48:34;;;;;;;0.10;0.10;;;14.20;54.00;;;;;;5090931;28;20036;-72
2023/04/05 07:51:05;;;;;;;0.00;0.00;;;14.60;55.10;;;;;;5092598;28;20047;-73
2023/04/05 07:53:30;;;;;;;0.40;0.40;;;14.40;54.20;;;;;;5094229;28;20051;-73
2023/04/05 07:55:56;;;;;;;0.10;0.10;;;14.00;52.80;;;;;;5101211;28;20073;-72
2023/04/05 07:58:22;;;;;;;0.20;0.20;;;14.40;52.60;;;;;;5074591;28;20056;-74
2023/04/05 08:00:48;;;;;;;0.17;0.17;;;15.80;51.00;;;;;;5070578;28;20102;-72
2023/04/05 08:03:14;;;;;;;0.13;0.13;;;15.50;51.80;;;;;;5076736;28;20032;-73
2023/04/05 08:05:39;;;;;;;0.10;0.10;;;15.40;50.90;;;;;;5074865;28;20455;-72
2023/04/05 08:08:07;;;;;;;0.23;0.23;;;16.10;50.10;;;;;;5076690;28;20443;-73
2023/04/05 08:10:38;;;;;;;0.00;0.00;;;16.80;50.10;;;;;;5075758;28;20020;-71
2023/04/05 08:13:05;;;;;;;0.10;0.10;;;17.30;48.50;;;;;;5077645;28;20024;-73
2023/04/05 08:15:32;;;;;;;0.20;0.20;;;17.80;48.60;;;;;;5078076;28;20021;-73
2023/04/05 08:17:58;;;;;;;0.20;0.20;;;17.30;46.60;;;;;;5080361;28;20073;-72
2023/04/05 08:20:23;;;;;;;0.03;0.03;;;17.30;46.90;;;;;;5073811;28;20059;-74
2023/04/05 08:22:49;;;;;;;0.03;0.03;;;16.90;46.80;;;;;;5080220;28;20039;-73
2023/04/05 08:25:15;;;;;;;0.00;0.00;;;18.00;49.60;;;;;;5077314;28;20043;-72
2023/04/05 08:27:40;;;;;;;0.17;0.13;;;17.80;47.00;;;;;;5077924;28;20028;-73
2023/04/05 08:30:07;;;;;;;0.40;0.40;;;18.10;46.80;;;;;;5071838;28;20079;-74
2023/04/05 08:32:33;;;;;;;0.38;0.38;;;18.20;44.90;;;;;;5069649;28;20611;-73
2023/04/05 08:34:59;;;;;;;0.00;0.00;;;18.10;45.60;;;;;;5085292;28;20055;-73
2023/04/05 08:37:25;;;;;;;0.00;0.00;;;18.50;44.70;;;;;;5081250;28;20116;-73
2023/04/05 08:39:51;;;;;;;0.20;0.20;;;19.40;44.40;;;;;;5080319;28;20031;-73
2023/04/05 08:42:33;;;;;;;0.33;0.33;;;19.50;44.60;;;;;;5063647;28;20462;-73
2023/04/05 08:45:02;;;;;;;0.00;0.00;;;20.60;45.00;;;;;;5081351;28;20103;-73
2023/04/05 08:47:28;;;;;;;0.10;0.10;;;19.10;46.50;;;;;;5075193;28;20055;-75
2023/04/05 08:49:54;;;;;;;0.10;0.10;;;20.30;47.50;;;;;;5073824;28;20037;-73
2023/04/05 08:52:20;;;;;;;0.43;0.30;;;21.20;45.60;;;;;;5082449;28;20035;-73
2023/04/05 08:54:46;;;;;;;0.30;0.17;;;20.40;44.20;;;;;;5080528;28;20032;-74
2023/04/05 08:57:13;;;;;;;0.00;0.00;;;20.60;46.50;;;;;;5093200;28;20079;-72
2023/04/05 08:59:40;;;;;;;0.00;0.00;;;19.80;46.40;;;;;;5091149;28;20028;-73
2023/04/05 09:02:18;;;;;;;0.43;0.43;;;20.10;47.30;;;;;;5071630;28;20610;-74
2023/04/05 09:04:46;;;;;;;0.17;0.17;;;20.30;43.90;;;;;;5086005;28;20024;-73
2023/04/05 09:07:16;;;;;;;0.75;0.43;;;20.80;43.90;;;;;;5087077;28;20043;-73
2023/04/05 09:09:45;;;;;;;7.32;0.45;;;19.90;43.00;;;;;;5075480;28;20042;-72
2023/04/05 09:12:11;;;;;;;0.30;0.30;;;20.60;45.50;;;;;;5088258;28;20538;-72
2023/04/05 09:14:37;;;;;;;4.60;0.33;;;21.70;43.80;;;;;;5091031;28;20096;-74
2023/04/05 09:17:05;;;;;;;0.15;0.15;;;22.60;42.00;;;;;;5089759;28;20032;-72
2023/04/05 09:19:30;;;;;;;0.00;0.00;;;21.20;46.40;;;;;;5096077;28;20023;-72
2023/04/05 09:22:04;;;;;;;0.30;0.30;;;21.60;43.00;;;;;;5089856;28;20035;-72
2023/04/05 09:24:40;;;;;;;0.20;0.20;;;22.30;42.80;;;;;;5093666;28;20063;-73
2023/04/05 09:27:06;;;;;;;0.00;0.00;;;21.80;45.10;;;;;;5087507;28;20118;-72
2023/04/05 09:29:32;;;;;;;0.63;0.50;;;20.90;42.50;;;;;;5086466;28;20504;-72
2023/04/05 09:31:59;;;;;;;1.50;0.73;;;21.50;42.80;;;;;;5091682;28;20042;-74
2023/04/05 09:34:25;;;;;;;0.22;0.22;;;21.20;42.10;;;;;;5091043;28;20066;-72
2023/04/05 09:36:51;;;;;;;0.00;0.00;;;21.90;40.90;;;;;;5087535;28;20024;-73
2023/04/05 09:39:21;;;;;;;;;;;22.90;41.00;;;;;;5093145;28;20036;-72
2023/04/05 09:42:10;;;;;;;0.03;0.03;;;22.40;43.40;;;;;;5089406;28;19999;-73
2023/04/05 09:44:50;;;;;;;0.47;0.47;;;22.60;42.10;;;;;;5089020;28;20101;-72
2023/04/05 09:47:17;;;;;;;0.10;0.10;;;22.40;45.30;;;;;;5085953;28;20581;-72
2023/04/05 09:49:43;;;;;;;0.05;0.05;;;22.30;44.60;;;;;;5084714;28;20081;-74
2023/04/05 09:52:18;;;;;;;1.02;0.65;;;22.30;43.40;;;;;;5085065;28;20103;-72
2023/04/05 09:54:44;;;;;;;0.10;0.10;;;20.50;45.70;;;;;;5084098;28;20366;-73
2023/04/05 09:57:09;;;;;;;0.53;0.53;;;21.60;44.10;;;;;;5089287;28;20636;-72
2023/04/05 09:59:35;;;;;;;0.83;0.67;;;22.20;43.60;;;;;;5094661;28;20076;-72
2023/04/05 10:02:02;;;;;;;0.50;0.50;;;21.90;44.40;;;;;;5104115;28;20051;-72
2023/04/05 10:04:38;;;;;;;0.10;0.10;;;20.10;42.60;;;;;;5082263;28;20028;-75
2023/04/05 10:07:05;;;;;;;0.22;0.22;;;20.20;45.60;;;;;;5101014;28;20034;-73
2023/04/05 10:09:31;;;;;;;;;;;19.30;43.00;;;;;;5097543;28;20039;-72
2023/04/05 10:11:58;;;;;;;0.05;0.05;;;21.30;42.10;;;;;;5100396;28;19961;-73
2023/04/05 10:14:24;;;;;;;0.10;0.10;;;20.50;46.00;;;;;;5103467;28;20578;-74
2023/04/05 10:17:06;;;;;;;0.20;0.20;;;19.90;43.30;;;;;;5090778;28;20030;-72
2023/04/05 10:20:10;;;;;;;0.20;0.10;;;18.30;46.70;;;;;;5096752;28;20395;-72
2023/04/05 10:22:58;;;;;;;0.32;0.32;;;18.40;46.10;;;;;;5092805;28;20125;-72
2023/04/05 10:25:45;;;;;;;0.00;0.00;;;18.20;48.40;;;;;;5096551;28;20024;-72
2023/04/05 10:28:21;;;;;;;0.70;0.52;;;17.80;46.50;;;;;;5092208;28;20099;-73
2023/04/05 10:30:50;;;;;;;0.10;0.10;;;16.60;50.00;;;;;;5097707;28;20031;-72
2023/04/05 10:33:35;;;;;;;0.08;0.08;;;17.50;47.50;;;;;;5102393;28;20027;-74
2023/04/05 10:36:36;;;;;;;0.55;0.55;;;17.20;50.60;;;;;;5102938;28;20023;-72
2023/04/05 10:39:14;;;;;;;0.25;0.25;;;16.90;49.20;;;;;;5075261;28;20074;-73
2023/04/05 10:41:53;;;;;;;0.22;0.22;;;15.70;56.20;;;;;;5093903;28;20028;-73
2023/04/05 10:44:18;;;;;;;0.00;0.00;;;16.40;54.10;;;;;;5099065;28;20024;-73
2023/04/05 10:46:45;;;;;;;1.03;0.40;;;16.20;53.10;;;;;;5100867;28;20019;-73
2023/04/05 10:49:48;;;;;;;0.17;0.17;;;16.30;54.50;;;;;;5099917;28;20032;-73
2023/04/05 10:52:16;;;;;;;0.10;0.10;;;16.30;54.50;;;;;;5092156;28;20036;-73
2023/04/05 10:54:42;;;;;;;0.10;0.10;;;16.00;54.10;;;;;;5100157;28;20020;-73
2023/04/05 10:57:09;;;;;;;0.53;0.53;;;16.00;55.40;;;;;;5087126;28;20075;-73
2023/04/05 10:59:40;;;;;;;0.15;0.15;;;15.90;56.30;;;;;;5072268;28;20033;-72
2023/04/05 11:02:06;;;;;;;0.20;0.20;;;15.60;58.00;;;;;;5072779;28;20023;-73
2023/04/05 11:04:33;;;;;;;0.20;0.20;;;15.80;56.10;;;;;;5072137;28;20139;-74
2023/04/05 11:07:16;;;;;;;0.15;0.15;;;15.90;60.20;;;;;;5069628;28;20043;-73
2023/04/05 11:09:55;;;;;;;0.20;0.20;;;15.90;58.70;;;;;;5072994;28;20036;-73
2023/04/05 11:12:46;;;;;;;0.65;0.65;;;15.90;60.10;;;;;;5067042;28;20025;-73
2023/04/05 11:15:27;;;;;;;0.20;0.20;;;15.80;60.60;;;;;;5077765;28;20107;-73
2023/04/05 11:18:21;;;;;;;0.20;0.20;;;15.40;58.10;;;;;;5072265;28;20026;-75
2023/04/05 11:21:16;;;;;;;0.13;0.13;;;15.30;59.20;;;;;;5072445;28;20042;-72
2023/04/05 11:24:05;;;;;;;0.08;0.08;;;15.80;63.20;;;;;;5071243;28;20098;-74
2023/04/05 11:26:33;;;;;;;0.45;0.45;;;15.10;56.80;;;;;;5072240;28;20029;-72
2023/04/05 11:28:59;;;;;;;0.82;0.82;;;15.20;61.20;;;;;;5072943;28;20791;-74
2023/04/05 11:31:25;;;;;;;0.63;0.63;;;14.70;52.80;;;;;;5081564;28;20024;-74
2023/04/05 11:34:09;;;;;;;0.10;0.10;;;14.60;56.60;;;;;;5082120;28;20015;-72
2023/04/05 11:36:35;;;;;;;0.30;0.30;;;14.90;58.90;;;;;;5080434;28;20538;-73
2023/04/05 11:39:22;;;;;;;0.10;0.10;;;14.90;58.60;;;;;;5080474;28;20105;-72
2023/04/05 11:41:57;;;;;;;0.00;0.00;;;15.30;56.80;;;;;;5076275;28;20104;-72
2023/04/05 11:44:23;;;;;;;0.10;0.10;;;14.80;56.10;;;;;;5080486;28;20024;-72
2023/04/05 11:46:50;;;;;;;0.10;0.10;;;15.00;58.60;;;;;;5080974;28;21300;-72
2023/04/05 11:49:16;;;;;;;0.43;0.17;;;14.50;52.40;;;;;;5080927;28;20083;-72
2023/04/05 11:51:42;;;;;;;0.55;0.55;;;14.30;51.00;;;;;;5080429;28;20127;-72
2023/04/05 11:54:11;;;;;;;0.10;0.10;;;14.60;56.00;;;;;;5068635;28;20605;-73
2023/04/05 11:56:36;;;;;;;0.10;0.10;;;14.50;56.40;;;;;;5073956;28;20108;-74
2023/04/05 11:59:02;;;;;;;0.22;0.22;;;14.80;57.10;;;;;;5077571;28;20024;-72
2023/04/05 12:01:28;;;;;;;0.10;0.10;;;14.80;60.00;;;;;;5082519;28;20039;-72
2023/04/05 12:03:55;;;;;;;0.20;0.20;;;14.70;58.50;;;;;;5088291;28;20760;-74
2023/04/05 12:06:22;;;;;;;0.80;0.63;;;14.80;58.60;;;;;;5094640;28;20027;-73
2023/04/05 12:08:55;;;;;;;0.10;0.10;;;14.70;59.70;;;;;;5093693;28;20071;-73
2023/04/05 12:11:28;;;;;;;0.10;0.10;;;14.60;57.70;;;;;;5091026;28;20024;-73
2023/04/05 12:13:58;;;;;;;0.43;0.43;;;14.60;56.50;;;;;;5096432;28;20544;-75
2023/04/05 12:16:24;;;;;;;0.40;0.40;;;14.30;51.20;;;;;;5098004;28;20086;-74
2023/04/05 12:18:54;;;;;;;0.20;0.20;;;14.40;53.30;;;;;;5099439;28;20036;-75
2023/04/05 12:21:20;;;;;;;0.10;0.10;;;14.50;56.90;;;;;;5102179;28;20839;-73
2023/04/05 12:23:47;;;;;;;0.20;0.20;;;14.60;57.20;;;;;;5098101;28;20111;-73
2023/04/05 12:26:13;;;;;;;0.10;0.10;;;14.60;53.90;;;;;;5080373;28;20031;-73
2023/04/05 12:28:53;;;;;;;0.08;0.08;;;14.60;56.20;;;;;;5094244;28;20082;-73
2023/04/05 12:31:44;;;;;;;0.52;0.52;;;14.60;59.00;;;;;;5094442;28;20064;-73
2023/04/05 12:34:12;;;;;;;0.30;0.30;;;14.50;55.70;;;;;;5096887;28;20062;-72
2023/04/05 12:36:42;;;;;;;0.20;0.20;;;14.40;54.30;;;;;;5100463;28;20382;-72
2023/04/05 12:39:09;;;;;;;0.00;0.00;;;14.50;53.90;;;;;;5098167;28;20097;-74
2023/04/05 12:41:36;;;;;;;0.10;0.10;;;14.60;54.80;;;;;;5101942;28;20112;-74
2023/04/05 12:44:04;;;;;;;;;;;14.80;59.40;;;;;;5101128;28;20181;-72
2023/04/05 12:46:46;;;;;;;0.10;0.10;;;14.40;52.40;;;;;;5101659;28;19915;-72
2023/04/05 12:49:14;;;;;;;0.30;0.30;;;14.40;54.10;;;;;;5091526;28;20495;-72
2023/04/05 12:51:47;;;;;;;0.45;0.45;;;14.50;56.90;;;;;;5100033;28;20023;-74
2023/04/05 12:54:14;;;;;;;0.10;0.10;;;14.60;55.00;;;;;;5100874;28;20063;-73
2023/04/05 12:56:43;;;;;;;;;;;14.50;56.20;;;;;;5101261;28;20044;-72
2023/04/05 12:59:08;;;;;;;0.10;0.10;;;14.50;54.30;;;;;;5101062;28;19907;-74
2023/04/05 13:01:34;;;;;;;0.20;0.20;;;14.40;52.70;;;;;;5101512;28;20137;-74